logo
App data

East India Company

In East India Company, players will enjoy building the World's most powerful trading empire & engaging in vigorous battles in both single player & multiplayer modes, all within a breathtaking cinematic game environment.
Store | Hub | SteamDB | Site
Developer: Nitro Games Publisher: Nitro Games
Genre: Strategy
Languages: English, French, German
Tags: Strategy (39), Economy (8), Historical (7), Trading (5)
Category: Single-player, Multi-player
Release date: Jul 31, 2009
Price: $9.99
Score rank: 9% Userscore: 46% Old userscore: 47% Metascore: 67%
Owners: 50,000 .. 100,000
Followers: 395
Peak concurrent players yesterday: 4
Playtime total: 02:05 (average) 01:01 (median)

Steam Spy is still in beta, so expect major bugs.

Owners data:

Access restricted.

This feature is only available to users with special access rights. Sorry.

If you want to proceed, you need to register or log in first and then back Steam Spy on Patreon. Look for Indie or Pro pledge.

Don't forget to use the same email as on Steam Spy!

Audience in 2 weeks:

Access restricted.

This feature is only available to users with special access rights. Sorry.

If you want to proceed, you need to register or log in first and then back Steam Spy on Patreon. Look for Indie or Pro pledge.

Don't forget to use the same email as on Steam Spy!

Peak daily concurrent players:

CCU data courtesy of SteamDB. Used with permission.

Hourly concurrent players:

Daily Twitch stats:

Hourly Twitch stats:

YouTube:

The views data is based on top 50 videos uploaded last week. Actual number of views might be more than the number shown.

The displayed number of videos uploaded yesterday is limited to 50, so if there were more videos uploaded, the number will still show 50.

If the game has commonly used word as its name (like "FEAR" or "Volume") its number of Youtube views might be wrong.

Games similar to this one:

# Game Release date
Price
Score rank
(Userscore / Metascore)
Owners
Players
Playtime (Median)
1 Lazerbait Oct 14, 2016 Free97% (97%)20,000 .. 50,0000%00:00 (00:00)
2 UFHO2 Jun 2, 2015 FreeN/A (N/A)20,000 .. 50,0001.04%00:01 (00:00)
3 Kohan II: Kings of War Aug 24, 2011 $9.9980% (91%/81%)20,000 .. 50,0000%00:00 (00:00)
4 Sacrifice Aug 19, 2009 $9.9980% (91%/89%)50,000 .. 100,0000%00:00 (00:00)
5 Quar: Battle for Gate 18 Apr 4, 2016 $19.9980% (91%)20,000 .. 50,0000%00:00 (00:00)
6 Company of Heroes: Opposing Fronts Sep 24, 2007 $19.9980% (91%/87%)2,000,000 .. 5,000,0000.06%00:33 (00:11)
7 ThreadSpace: Hyperbol Jul 12, 2007 $9.99N/A (N/A)20,000 .. 50,0000%00:00 (00:00)
8 Khet 2.0 Oct 1, 2014 $9.9977% (90%)50,000 .. 100,0002.27%02:57 (00:59)
9 Swords and Soldiers HD Dec 2, 2010 $9.9977% (90%)100,000 .. 200,0000.07%00:01 (00:00)
10 Warhammer 40,000: Dawn of War – Winter Assault Aug 7, 2007 $12.9977% (90%)500,000 .. 1,000,0000.13%00:01 (00:00)
11 Codename: Panzers, Phase Two Jul 21, 2005 $3.7477% (90%/80%)0 .. 20,0000%00:00 (00:00)
12 MoonBase Commander Feb 6, 2014 $5.9977% (90%/77%)0 .. 20,0002.7%01:36 (00:32)
13 X-COM: Apocalypse Sep 4, 2008 $4.9977% (90%)500,000 .. 1,000,0000.18%00:01 (00:00)
14 Archon Classic Nov 2, 2010 $9.9974% (89%)20,000 .. 50,0000%00:00 (00:00)
15 Silent Storm Gold Edition Oct 2, 2013 $9.9974% (89%/83%)100,000 .. 200,0000%00:00 (00:00)
16 Cosmic Trip May 24, 2017 $19.9971% (88%)0 .. 20,0000%00:00 (00:00)
17 Supreme Commander Sep 28, 2011 $12.9968% (87%/86%)500,000 .. 1,000,0000.13%03:42 (01:14)
18 Sang-Froid - Tales of Werewolves Apr 5, 2013 Free68% (87%/79%)200,000 .. 500,0000.16%00:01 (00:00)
19 Pang Adventures Apr 18, 2016 $9.9968% (87%)20,000 .. 50,0000%00:00 (00:00)
20 Rush for Berlin Gold Oct 29, 2009 $4.9966% (86%/76%)20,000 .. 50,0000%00:00 (00:00)
21 Out of Ammo Sep 14, 2016 $14.9966% (86%)20,000 .. 50,0000%00:00 (00:00)
22 Ground Control Anthology Jul 8, 2015 $4.9966% (86%/86%)20,000 .. 50,0000%00:00 (00:00)
23 Civilization IV: Warlords Apr 6, 2007 $4.9966% (86%/84%)1,000,000 .. 2,000,0000.11%00:01 (00:00)
24 Joint Task Force Mar 27, 2007 $4.9963% (85%/68%)20,000 .. 50,0000%00:00 (00:00)
25 Magnifico Dec 2, 2014 $4.9963% (85%)50,000 .. 100,0000%00:00 (00:00)
26 Cossacks: Art of War Aug 26, 2011 $4.9961% (84%/74%)50,000 .. 100,0000%00:00 (00:00)
27 Rooks Keep Dec 5, 2014 $7.9961% (84%)20,000 .. 50,0000%00:00 (00:00)
28 Battle Academy Apr 16, 2014 $14.9961% (84%)20,000 .. 50,0000%00:00 (00:00)
29 Commandos: Beyond the Call of Duty Mar 15, 2007 $4.9958% (83%)500,000 .. 1,000,0000%00:00 (00:00)
30 Space Empires IV Deluxe Feb 7, 2006 $9.9958% (83%/79%)50,000 .. 100,0000%00:00 (00:00)
31 Eador: Genesis Oct 14, 2013 $5.9958% (83%)50,000 .. 100,0000%00:00 (00:00)
32 Microgons Mar 27, 2017 FreeN/A (N/A)0 .. 20,0002.94%00:01 (00:00)
33 Seven Kingdoms 2 HD Feb 4, 2015 $9.9956% (82%)20,000 .. 50,0000%00:00 (00:00)
34 Ground Control II: Operation Exodus Jul 8, 2015 $4.9956% (82%/80%)20,000 .. 50,0000%00:00 (00:00)
35 SHOGUN: Total War - Collection Jun 25, 2015 $9.9956% (82%)20,000 .. 50,0000.48%00:53 (00:17)
36 Conflict Desert Storm May 28, 2012 $6.9956% (82%/56%)20,000 .. 50,0000%00:00 (00:00)
37 Men of War: Red Tide Nov 1, 2009 $4.9954% (81%/77%)200,000 .. 500,0000%00:00 (00:00)
38 Tiny Troopers Aug 24, 2012 $4.9954% (81%/57%)100,000 .. 200,0001.03%00:11 (00:07)
39 Wyrmsun May 22, 2015 Free54% (81%)20,000 .. 50,0000.93%00:01 (00:00)
40 Conquest of Elysium 3 Oct 24, 2012 $9.9951% (80%)20,000 .. 50,0000%00:00 (00:00)
41 Perimeter Apr 3, 2014 $3.9951% (80%/77%)20,000 .. 50,0000%00:00 (00:00)
42 Locoland May 28, 2015 $4.9951% (80%)0 .. 20,0000%00:00 (00:00)
43 Fantasy Wars Aug 6, 2010 $4.9951% (80%/67%)50,000 .. 100,0000%00:00 (00:00)
44 ROD: Revolt Of Defense Aug 12, 2016 $0.9951% (80%)20,000 .. 50,0000%00:00 (00:00)
45 Legends of Callasia Jun 10, 2016 $14.9951% (80%)50,000 .. 100,0000%00:00 (00:00)
46 Supreme Ruler 2020 Gold Jul 9, 2009 $9.9951% (80%/65%)50,000 .. 100,0000%00:00 (00:00)
47 Fate of the World Feb 28, 2011 $9.9951% (80%/70%)50,000 .. 100,0000%00:00 (00:00)
48 Disciples Sacred Lands Gold Oct 7, 2014 $7.9951% (80%)20,000 .. 50,0000%00:00 (00:00)
49 Gunman Taco Truck Jan 28, 2017 $1.9951% (80%)0 .. 20,0000%00:00 (00:00)
50 Dwarfs!? May 4, 2011 $9.9951% (80%)200,000 .. 500,0000.17%00:20 (00:06)
51 Demolition Inc. Sep 19, 2011 $5.9949% (79%)50,000 .. 100,0000%00:00 (00:00)
52 Dominions 3: The Awakening Sep 10, 2013 $19.9949% (79%/82%)0 .. 20,0000%00:00 (00:00)
53 Harvest: Massive Encounter Jan 23, 2009 $7.9949% (79%)20,000 .. 50,0000%00:00 (00:00)
54 Disciples II: Rise of the Elves Jul 6, 2006 $6.9949% (79%/80%)100,000 .. 200,0000%00:00 (00:00)
55 Reprisal Universe Sep 15, 2014 $6.9947% (78%)20,000 .. 50,0000%00:00 (00:00)
56 Heroes of Might & Magic V: Hammers of Fate Oct 10, 2008 $9.9947% (78%/66%)200,000 .. 500,0000%00:00 (00:00)
57 Patrician III Nov 18, 2010 $4.9947% (78%/75%)100,000 .. 200,0000%00:00 (00:00)
58 Age of Wonders Oct 2010 $5.9947% (78%)100,000 .. 200,0000%00:00 (00:00)
59 Cluck Yegger in Escape From The Planet of The Poultroid Nov 9, 2015 $2.99N/A (N/A)0 .. 20,0000%00:00 (00:00)
60 Age of Wonders II: The Wizard's Throne Oct 2010 $9.9945% (77%/86%)50,000 .. 100,0000%00:00 (00:00)
61 Starscape Nov 3, 2008 $7.9945% (77%)0 .. 20,0000%00:00 (00:00)
62 Imperium Romanum Gold Edition Nov 25, 2008 $9.9945% (77%/63%)100,000 .. 200,0000%00:00 (00:00)
63 Dangerous Waters Feb 7, 2006 $14.9945% (77%/82%)50,000 .. 100,0000%00:00 (00:00)
64 ORB Mar 13, 2014 $4.9945% (77%)0 .. 20,0000%00:00 (00:00)
65 Honey Rose: Underdog Fighter Extraordinaire Sep 29, 2016 FreeN/A (N/A)20,000 .. 50,0000%00:00 (00:00)
66 Praetorians Apr 11, 2014 $4.9943% (76%/78%)50,000 .. 100,0000.72%00:36 (00:12)
67 Cue Club 2: Pool & Snooker Mar 7, 2016 $18.9943% (76%)0 .. 20,00033.33%00:46 (00:23)
68 A Healer Only Lives Twice Jun 2, 2016 $2.9943% (76%)0 .. 20,0000%00:00 (00:00)
69 Perimeter: Emperor's Testament May 22, 2014 $3.99N/A (N/A/72%)20,000 .. 50,0000%00:00 (00:00)
70 Fritz for Fun 13 Dec 10, 2014 $19.99N/A (N/A)0 .. 20,0000%00:00 (00:00)
71 WARSHIFT Oct 12, 2016 $12.9941% (75%)20,000 .. 50,0000%00:00 (00:00)
72 Civil War II Jul 3, 2014 $39.9941% (75%)0 .. 20,0000%00:00 (00:00)
73 Vegas: Make It Big Dec 21, 2006 $4.9941% (75%)20,000 .. 50,0000%00:00 (00:00)
74 World War I Apr 9, 2015 $4.9941% (75%)20,000 .. 50,0000%00:00 (00:00)
75 Cubemen Mar 16, 2012 $3.9941% (75%/74%)100,000 .. 200,0000.91%00:34 (00:22)
76 688(I) Hunter/Killer Oct 26, 2006 $9.9940% (74%)20,000 .. 50,0000%00:00 (00:00)
77 TableTop Soccer Apr 22, 2016 $0.9940% (74%)0 .. 20,0000%00:00 (00:00)
78 Cossacks: European Wars Aug 26, 2011 $4.9938% (73%/74%)100,000 .. 200,0000%00:00 (00:00)
79 Desperados: Wanted Dead or Alive Nov 20, 2013 $4.9938% (73%/78%)100,000 .. 200,0000.6%00:14 (00:04)
80 AirMech Command Mar 8, 2017 $19.9938% (73%)0 .. 20,0000%00:00 (00:00)
81 Battlestations: Midway Mar 15, 2007 $6.9938% (73%/76%)200,000 .. 500,0000%00:00 (00:00)
82 Grand Ages: Rome Mar 20, 2009 $9.9936% (72%/72%)200,000 .. 500,0000%00:00 (00:00)
83 Children of Orc Dec 20, 2016 Free36% (72%)20,000 .. 50,0002.04%01:06 (00:22)
84 Darwinia Jul 14, 2005 $9.9935% (71%/84%)500,000 .. 1,000,0000.25%00:21 (00:14)
85 Rome: Total War - Alexander Aug 28, 2007 $4.9935% (71%/79%)500,000 .. 1,000,0000.16%00:01 (00:00)
86 The Guild Gold Edition Sep 9, 2014 $9.9933% (70%/82%)100,000 .. 200,0000%00:00 (00:00)
87 War in a Box: Paper Tanks Jul 4, 2014 $4.9933% (70%)50,000 .. 100,0000%00:00 (00:00)
88 Brigade E5: New Jagged Union Apr 30, 2014 $3.9933% (70%/41%)0 .. 20,0000%00:00 (00:00)
89 UFO: Aftershock Apr 16, 2014 $3.9931% (69%)50,000 .. 100,0000%00:00 (00:00)
90 The Nightmare Cooperative Jul 16, 2014 $4.9931% (69%)50,000 .. 100,0000%00:00 (00:00)
91 Void Destroyer Jan 20, 2015 $9.9930% (68%)50,000 .. 100,0000%00:00 (00:00)
92 Alea Jacta Est Nov 4, 2014 $24.9930% (68%)0 .. 20,0000%00:00 (00:00)
93 Across the Rhine Nov 6, 2014 $6.99N/A (N/A)0 .. 20,0000%00:00 (00:00)
94 Survivor Squad: Gauntlets Nov 16, 2015 $4.9930% (68%)20,000 .. 50,0000%00:00 (00:00)
95 Legions of Ashworld Jul 4, 2014 $4.99N/A (N/A)0 .. 20,0000%00:00 (00:00)
96 American Conquest: Fight Back Aug 26, 2011 $4.9930% (68%/66%)100,000 .. 200,0000.91%01:39 (00:33)
97 Cthulhu Realms Jul 1, 2016 N/A30% (68%)50,000 .. 100,0000.55%00:18 (00:06)
98 Sub Command Oct 26, 2006 $9.99N/A (N/A/84%)20,000 .. 50,0000%00:00 (00:00)
99 American Conquest Aug 26, 2011 $4.9928% (67%/76%)100,000 .. 200,0000.76%00:41 (00:13)
100 Nomad Fleet Jul 14, 2015 $9.9928% (67%)0 .. 20,0003.57%02:54 (00:58)
101 Europa Universalis: Rome - Gold Edition Dec 18, 2008 $9.9927% (66%/79%)50,000 .. 100,0000%00:00 (00:00)
102 Men of War: Condemned Heroes Apr 12, 2012 $7.9926% (65%/57%)100,000 .. 200,0000%00:00 (00:00)
103 Planets Under Attack Sep 27, 2012 $9.9926% (65%)500,000 .. 1,000,0001.24%03:57 (04:25)
104 Marauder Apr 4, 2014 $9.9926% (65%)20,000 .. 50,0000%00:00 (00:00)
105 The Seven Years War (1756-1763) Oct 30, 2015 $19.9924% (64%)0 .. 20,0000%00:00 (00:00)
106 Hunters Of The Dead Sep 4, 2014 $4.9924% (64%)20,000 .. 50,0001.39%01:30 (00:30)
107 Full Spectrum Warrior: Ten Hammers Jul 17, 2007 $9.9924% (64%/70%)100,000 .. 200,0000%00:00 (00:00)
108 UFO: Afterlight Jan 6, 2014 $6.9924% (64%/71%)200,000 .. 500,0000%00:00 (00:00)
109 Port Royale 2 Jun 16, 2009 $4.9923% (63%/75%)50,000 .. 100,0000%00:00 (00:00)
110 Rise: Battle Lines Nov 17, 2015 $1.9922% (62%)0 .. 20,0000%00:00 (00:00)
111 Crusader Kings Complete Feb 14, 2012 $9.9922% (62%/73%)50,000 .. 100,0000%00:00 (00:00)
112 Crown and Council Jan 27, 2017 Free22% (62%)100,000 .. 200,0000%00:00 (00:00)
113 Haegemonia: The Solon Heritage May 1, 2014 $4.9922% (62%)50,000 .. 100,0000%00:00 (00:00)
114 To End All Wars Aug 29, 2014 $39.9922% (62%/71%)0 .. 20,0000%00:00 (00:00)
115 Maelstrom: The Battle for Earth Begins Feb 13, 2009 $4.9922% (62%/58%)20,000 .. 50,0000%00:00 (00:00)
116 BattleLore: Command Mar 31, 2015 $6.9921% (61%)0 .. 20,0000%00:00 (00:00)
117 Legions of Steel Jul 16, 2015 $19.99N/A (N/A/64%)0 .. 20,0000%00:00 (00:00)
118 Robin Hood: The Legend of Sherwood Aug 26, 2011 $7.9921% (61%/80%)100,000 .. 200,0000%00:00 (00:00)
119 Sudden Strike 3 Dec 7, 2007 $5.9920% (60%)20,000 .. 50,0003.23%00:17 (00:05)
120 Hydrophobia: Prophecy May 9, 2011 $4.9920% (60%/64%)200,000 .. 500,0000%00:00 (00:00)
121 Quarantine Feb 9, 2017 $9.9918% (59%)0 .. 20,0000%00:00 (00:00)
122 Steam 360 Video Player May 10, 2017 Free18% (59%)50,000 .. 100,0000%00:00 (00:00)
123 Achron Aug 29, 2011 $19.9918% (59%/54%)0 .. 20,0000%00:00 (00:00)
124 Blight of the Immortals Oct 25, 2016 FreeN/A (N/A)20,000 .. 50,0000%00:00 (00:00)
125 Rush for Glory Jun 16, 2014 $14.9917% (58%)50,000 .. 100,0001%00:01 (00:00)
126 Codename: Panzers - Cold War May 6, 2009 $3.7417% (58%)20,000 .. 50,0000%00:00 (00:00)
127 Crystal Rift Mar 30, 2016 $9.9917% (58%)0 .. 20,0000%00:00 (00:00)
128 9th Company: Roots Of Terror Dec 3, 2009 $9.9916% (57%)20,000 .. 50,0000%00:00 (00:00)
129 Neocolonialism Dec 1, 2014 $2.99N/A (N/A)0 .. 20,0000%00:00 (00:00)
130 Cossacks II: Battle for Europe Aug 26, 2011 $4.9916% (56%/69%)100,000 .. 200,0000%00:00 (00:00)
131 BC Kings Jun 16, 2009 $4.9914% (54%)20,000 .. 50,0000%00:00 (00:00)
132 Gratuitous Tank Battles May 17, 2012 $9.9914% (54%/69%)50,000 .. 100,0000%00:00 (00:00)
133 Earth 2140 Nov 15, 2013 $4.9914% (54%)200,000 .. 500,0001.31%03:44 (04:10)
134 Crusaders: Thy Kingdom Come Oct 8, 2009 $9.99N/A (N/A)20,000 .. 50,0000%00:00 (00:00)
135 X-COM: Enforcer Sep 4, 2008 $4.9913% (52%/65%)500,000 .. 1,000,0000%00:00 (00:00)
136 Gods vs Humans Oct 10, 2014 $4.9913% (52%)20,000 .. 50,0000%00:00 (00:00)
137 Viking: Battle for Asgard Oct 17, 2012 $14.9913% (52%)1,000,000 .. 2,000,0000.06%00:01 (00:00)
138 Space Trader: Merchant Marine Oct 23, 2008 $4.9913% (52%)200,000 .. 500,0000%00:00 (00:00)
139 Red Faction II Aug 6, 2009 $9.9913% (52%/64%)500,000 .. 1,000,0000%00:00 (00:00)
140 X-COM: Interceptor Sep 4, 2008 $4.9912% (51%)500,000 .. 1,000,0000%00:00 (00:00)
141 Aggression: Europe Under Fire Apr 9, 2014 $9.9911% (50%)0 .. 20,0000%00:00 (00:00)
142 Master of Orion 3 Feb 25, 2003 $9.99N/A (N/A/64%)100,000 .. 200,0000%00:00 (00:00)
143 Evolution RTS Apr 7, 2014 Free10% (48%)100,000 .. 200,0000%00:00 (00:00)
144 Hero Generations Apr 10, 2015 $5.9910% (47%)0 .. 20,0000%00:00 (00:00)
145 Hell Nov 13, 2014 $29.99N/A (N/A)0 .. 20,0000%00:00 (00:00)
146 The Fleets of Sol Apr 1, 2016 $8.99N/A (N/A)0 .. 20,0000%00:00 (00:00)
147 Galactic Civilizations I: Ultimate Edition Aug 14, 2012 $9.999% (45%/83%)200,000 .. 500,0000%00:00 (00:00)
148 XIII Century – Gold Edition Aug 28, 2009 $4.999% (45%)50,000 .. 100,0000%00:00 (00:00)
149 Arms Dealer Mar 26, 2015 $5.999% (45%)0 .. 20,0000%00:00 (00:00)
150 Skyward Collapse May 23, 2013 $4.998% (44%/64%)100,000 .. 200,0000%00:00 (00:00)
151 Master of Magic Chess May 23, 2017 Free8% (44%)0 .. 20,0000%00:00 (00:00)
152 Shattered Union Oct 25, 2006 $4.998% (43%/67%)20,000 .. 50,0000%00:00 (00:00)
153 Desperados 2: Cooper's Revenge Mar 12, 2008 $9.998% (43%/66%)50,000 .. 100,0000%00:00 (00:00)
154 Dungeons Feb 10, 2011 $9.998% (43%/65%)200,000 .. 500,0000%00:00 (00:00)
155 Mars 2030 Mar 11, 2016 $4.99N/A (N/A)0 .. 20,0000%00:00 (00:00)
156 Real Warfare 2: Northern Crusades Nov 18, 2011 $4.997% (41%)20,000 .. 50,0000%00:00 (00:00)
157 Ancient Space Sep 23, 2014 $19.997% (41%)20,000 .. 50,0000%00:00 (00:00)
158 Guardians of Graxia Nov 10, 2010 $4.997% (41%)50,000 .. 100,0000.94%00:01 (00:00)
159 Theatre of War 3: Korea Mar 24, 2011 $6.997% (40%/49%)50,000 .. 100,0000%00:00 (00:00)
160 Two Worlds II Castle Defense Jun 14, 2011 $9.997% (40%)500,000 .. 1,000,0000.67%03:44 (04:33)
161 Cossacks II: Napoleonic Wars Aug 26, 2011 $4.996% (39%/73%)100,000 .. 200,0000%00:00 (00:00)
162 Dungeons - The Dark Lord Sep 27, 2011 $19.996% (39%/72%)100,000 .. 200,0000%00:00 (00:00)
163 Sacraboar Nov 6, 2009 $2.995% (35%)20,000 .. 50,0000%00:00 (00:00)
164 Fallen: A2P Protocol Aug 14, 2015 $9.994% (34%)20,000 .. 50,0000%00:00 (00:00)
165 Disciples III - Resurrection Oct 11, 2011 $14.994% (34%/63%)100,000 .. 200,0000%00:00 (00:00)
166 The Game of Life Jun 10, 2013 $9.994% (33%)0 .. 20,0000%00:00 (00:00)
167 Arena Wars 2 Oct 12, 2012 $3.994% (32%)50,000 .. 100,0000%00:00 (00:00)
168 US and THEM Mar 18, 2014 $2.994% (31%)20,000 .. 50,0000%00:00 (00:00)
169 Feudalism Jun 14, 2016 $14.99N/A (N/A)0 .. 20,0000%00:00 (00:00)
170 Tiestru Aug 20, 2014 $9.99N/A (N/A)20,000 .. 50,0000%00:00 (00:00)
171 Genesis Rising Aug 6, 2007 $4.992% (23%/57%)20,000 .. 50,0000%00:00 (00:00)
172 APOX Jan 20, 2011 $14.992% (23%/48%)20,000 .. 50,0000%00:00 (00:00)
173 Perimeter 2: New Earth Feb 10, 2009 $14.992% (20%/43%)0 .. 20,0000%00:00 (00:00)
174 Ironclads: American Civil War Apr 28, 2010 $9.99N/A (N/A)20,000 .. 50,0000%00:00 (00:00)
175 Prison Tycoon 3: Lockdown Jan 29, 2008 $9.992% (17%)20,000 .. 50,0000%00:00 (00:00)
176 Tryst Sep 14, 2012 $14.99N/A (N/A/50%)0 .. 20,0000%00:00 (00:00)
177 Citadels Jul 25, 2013 $14.991% (13%/20%)20,000 .. 50,0000%00:00 (00:00)
178 Spaceforce Constellations Dec 12, 2013 $9.99N/A (N/A)0 .. 20,0000%00:00 (00:00)

Tags over time:

Access restricted.

This feature is only available to users with special access rights. Sorry.

If you want to proceed, you need to register or log in first and then back Steam Spy on Patreon. Look for Indie or Pro pledge.

Don't forget to use the same email as on Steam Spy!

Owners of this game also own:

Access restricted.

This feature is only available to users with special access rights. Sorry.

If you want to proceed, you need to register or log in first and then back Steam Spy on Patreon. Look for Indie or Pro pledge.

Don't forget to use the same email as on Steam Spy!

Playtime distribution:

Access restricted.

This feature is only available to users with special access rights. Sorry.

If you want to proceed, you need to register or log in first and then back Steam Spy on Patreon. Look for Indie or Pro pledge.

Don't forget to use the same email as on Steam Spy!

Playtime (2 weeks):

Access restricted.

This feature is only available to users with special access rights. Sorry.

If you want to proceed, you need to register or log in first and then back Steam Spy on Patreon. Look for Indie or Pro pledge.

Don't forget to use the same email as on Steam Spy!

User reviews:

Login required.

Please register or log in to see this information.